AFR22 LFPG-KLAX
Flight info
| Callsign | AFR22 |
|---|---|
| Flight time | N/A |
| Altitude | 30000 |
| Route | ATREX DCT VESAN DCT RATUK DCT SOVAT L613 SANDY L722 ICTAM T421 DIDZA DCT CESQA DCT BIBPE DCT OKTAD DCT MEDOG DCT KRAGY DCT PEMOB DCT VATRY DCT BILTO/M086F320 NATA DORYY/N0505F320 DCT TEALS DCT YGL/N0502F340 DCT YQT DCT KP12I DCT KP06G DCT KP81A DCT KD66U/N0496F360 DCT KU54Q DCT BAWER DCT LAKRR Q73 HAKMN ANJLL4 |
| Aircraft | B77W/H-SDE1E2E3FGHIJ2J3J4J5M1RWXY/LB1D1 |
Departure
| Time | N/A |
|---|---|
| Airport | Charles de Gaulle International Airport (LFPG) |
Arrival
| Time | 2026-05-04 15:44 |
|---|---|
| Airport | Los Angeles International Airport (KLAX) |
| Time | Latitude | Longitude | Altitude | Speed | Heading |
|---|---|---|---|---|---|
| 2026-05-04 15:19 | 34.55765 | -116.29930 | 31502 ft | 377 kts | 230° |
| 2026-05-04 15:20 | 34.53919 | -116.32266 | 30661 ft | 376 kts | 230° |
| 2026-05-04 15:20 | 34.52113 | -116.34547 | 30155 ft | 367 kts | 230° |
| 2026-05-04 15:20 | 34.50364 | -116.36755 | 29669 ft | 358 kts | 229° |
| 2026-05-04 15:20 | 34.48630 | -116.38947 | 29171 ft | 366 kts | 229° |
| 2026-05-04 15:21 | 34.46816 | -116.41241 | 28650 ft | 381 kts | 228° |
| 2026-05-04 15:21 | 34.44983 | -116.43552 | 28087 ft | 380 kts | 228° |
| 2026-05-04 15:21 | 34.41547 | -116.48329 | 26992 ft | 372 kts | 236° |
| 2026-05-04 15:22 | 34.40302 | -116.51067 | 26430 ft | 371 kts | 241° |
| 2026-05-04 15:22 | 34.39157 | -116.53845 | 25836 ft | 369 kts | 242° |
| 2026-05-04 15:22 | 34.36889 | -116.59358 | 24597 ft | 363 kts | 242° |
| 2026-05-04 15:23 | 34.35769 | -116.62077 | 24086 ft | 355 kts | 242° |
| 2026-05-04 15:23 | 34.34701 | -116.64670 | 23975 ft | 336 kts | 242° |
| 2026-05-04 15:23 | 34.33687 | -116.67129 | 24063 ft | 319 kts | 241° |
| 2026-05-04 15:23 | 34.32693 | -116.69553 | 24020 ft | 329 kts | 242° |
| 2026-05-04 15:24 | 34.30690 | -116.74558 | 23076 ft | 327 kts | 242° |
| 2026-05-04 15:24 | 34.28736 | -116.79422 | 22289 ft | 317 kts | 242° |
| 2026-05-04 15:25 | 34.27772 | -116.81815 | 21903 ft | 316 kts | 242° |
| 2026-05-04 15:25 | 34.26811 | -116.84198 | 21517 ft | 315 kts | 242° |
| 2026-05-04 15:25 | 34.25858 | -116.86557 | 21127 ft | 313 kts | 242° |
| 2026-05-04 15:26 | 34.23952 | -116.91273 | 20335 ft | 311 kts | 242° |
| 2026-05-04 15:26 | 34.22998 | -116.93632 | 19921 ft | 310 kts | 242° |
| 2026-05-04 15:26 | 34.21146 | -116.98296 | 19096 ft | 307 kts | 246° |
| 2026-05-04 15:27 | 34.20439 | -117.00767 | 18754 ft | 307 kts | 249° |
| 2026-05-04 15:27 | 34.19116 | -117.05696 | 18150 ft | 308 kts | 249° |
| 2026-05-04 15:28 | 34.17778 | -117.10644 | 17510 ft | 307 kts | 249° |
| 2026-05-04 15:28 | 34.17116 | -117.13083 | 17196 ft | 307 kts | 249° |
| 2026-05-04 15:28 | 34.15771 | -117.18012 | 16624 ft | 306 kts | 249° |
| 2026-05-04 15:29 | 34.15102 | -117.20445 | 16310 ft | 304 kts | 249° |
| 2026-05-04 15:30 | 34.12434 | -117.30132 | 15093 ft | 303 kts | 249° |
| 2026-05-04 15:30 | 34.10424 | -117.37408 | 14035 ft | 301 kts | 250° |
| 2026-05-04 15:31 | 34.09226 | -117.42210 | 13252 ft | 295 kts | 251° |
| 2026-05-04 15:31 | 34.08626 | -117.44601 | 12860 ft | 292 kts | 251° |
| 2026-05-04 15:32 | 34.06754 | -117.51451 | 11825 ft | 285 kts | 246° |
| 2026-05-04 15:32 | 34.05153 | -117.55888 | 11387 ft | 284 kts | 246° |
| 2026-05-04 15:33 | 34.03613 | -117.60149 | 10930 ft | 269 kts | 246° |
| 2026-05-04 15:34 | 34.01439 | -117.66173 | 10287 ft | 255 kts | 246° |
| 2026-05-04 15:34 | 34.00789 | -117.68174 | 10065 ft | 256 kts | 255° |
| 2026-05-04 15:34 | 34.00276 | -117.72489 | 9433 ft | 260 kts | 261° |
| 2026-05-04 15:35 | 33.99852 | -117.76849 | 8754 ft | 259 kts | 261° |
| 2026-05-04 15:35 | 33.99616 | -117.78988 | 8434 ft | 258 kts | 262° |
| 2026-05-04 15:35 | 33.99382 | -117.81156 | 8112 ft | 258 kts | 262° |
| 2026-05-04 15:36 | 33.98947 | -117.85454 | 7535 ft | 259 kts | 263° |
| 2026-05-04 15:36 | 33.98731 | -117.87619 | 7261 ft | 259 kts | 263° |
| 2026-05-04 15:36 | 33.98513 | -117.89788 | 6978 ft | 258 kts | 263° |
| 2026-05-04 15:37 | 33.98300 | -117.91911 | 6730 ft | 256 kts | 263° |
| 2026-05-04 15:37 | 33.98090 | -117.94062 | 6495 ft | 255 kts | 263° |
| 2026-05-04 15:37 | 33.97885 | -117.96196 | 6257 ft | 255 kts | 263° |
| 2026-05-04 15:37 | 33.97678 | -117.98324 | 6019 ft | 254 kts | 263° |
| 2026-05-04 15:38 | 33.97470 | -118.00468 | 5779 ft | 253 kts | 263° |
| 2026-05-04 15:38 | 33.97264 | -118.02612 | 5540 ft | 252 kts | 263° |
| 2026-05-04 15:38 | 33.97062 | -118.04713 | 5305 ft | 250 kts | 264° |
| 2026-05-04 15:38 | 33.96862 | -118.06804 | 5074 ft | 249 kts | 264° |
| 2026-05-04 15:39 | 33.96664 | -118.08881 | 4904 ft | 245 kts | 264° |
| 2026-05-04 15:39 | 33.96471 | -118.10917 | 4588 ft | 241 kts | 264° |
| 2026-05-04 15:39 | 33.96104 | -118.14867 | 3979 ft | 230 kts | 264° |
| 2026-05-04 15:40 | 33.95916 | -118.16765 | 3683 ft | 226 kts | 263° |
| 2026-05-04 15:40 | 33.95718 | -118.18662 | 3382 ft | 222 kts | 264° |
| 2026-05-04 15:40 | 33.95542 | -118.20495 | 3107 ft | 219 kts | 263° |
| 2026-05-04 15:40 | 33.95356 | -118.22322 | 2824 ft | 208 kts | 263° |
| 2026-05-04 15:41 | 33.95193 | -118.23990 | 2570 ft | 193 kts | 264° |
| 2026-05-04 15:41 | 33.95032 | -118.25566 | 2323 ft | 184 kts | 264° |
| 2026-05-04 15:41 | 33.94885 | -118.27057 | 2072 ft | 173 kts | 264° |
| 2026-05-04 15:41 | 33.94746 | -118.28413 | 1823 ft | 154 kts | 263° |
| 2026-05-04 15:42 | 33.94620 | -118.29652 | 1618 ft | 144 kts | 264° |
| 2026-05-04 15:42 | 33.94501 | -118.30823 | 1419 ft | 140 kts | 263° |
| 2026-05-04 15:42 | 33.94385 | -118.31992 | 1199 ft | 140 kts | 264° |
| 2026-05-04 15:42 | 33.94261 | -118.33147 | 943 ft | 137 kts | 263° |
| 2026-05-04 15:43 | 33.94138 | -118.34279 | 738 ft | 133 kts | 263° |
| 2026-05-04 15:43 | 33.94028 | -118.35405 | 603 ft | 137 kts | 263° |
| 2026-05-04 15:43 | 33.93911 | -118.36536 | 426 ft | 133 kts | 262° |
| 2026-05-04 15:43 | 33.93798 | -118.37643 | 265 ft | 132 kts | 263° |
| 2026-05-04 15:44 | 33.93687 | -118.38747 | 122 ft | 126 kts | 263° |
| 2026-05-04 15:44 | 33.93593 | -118.39668 | 117 ft | 89 kts | 264° |
| 2026-05-04 15:44 | 33.93535 | -118.40232 | 127 ft | 45 kts | 263° |
| 2026-05-04 15:44 | 33.93547 | -118.40476 | 130 ft | 17 kts | 288° |
| 2026-05-04 15:45 | 33.93578 | -118.40577 | 131 ft | 11 kts | 290° |
| 2026-05-04 15:45 | 33.93598 | -118.40666 | 132 ft | 13 kts | 276° |
| 2026-05-04 15:45 | 33.93592 | -118.40785 | 132 ft | 16 kts | 263° |
| 2026-05-04 15:45 | 33.93576 | -118.40939 | 133 ft | 18 kts | 263° |
| 2026-05-04 15:46 | 33.93561 | -118.41088 | 133 ft | 17 kts | 263° |
| 2026-05-04 15:46 | 33.93545 | -118.41235 | 133 ft | 17 kts | 262° |
| 2026-05-04 15:46 | 33.93530 | -118.41371 | 133 ft | 15 kts | 264° |
| 2026-05-04 15:46 | 33.93518 | -118.41507 | 130 ft | 16 kts | 264° |
| 2026-05-04 15:47 | 33.93503 | -118.41643 | 130 ft | 15 kts | 263° |
| 2026-05-04 15:47 | 33.93489 | -118.41774 | 128 ft | 16 kts | 265° |
| 2026-05-04 15:47 | 33.93530 | -118.41892 | 125 ft | 16 kts | 326° |
| 2026-05-04 15:47 | 33.93637 | -118.41930 | 125 ft | 15 kts | 353° |
| 2026-05-04 15:48 | 33.93716 | -118.41936 | 125 ft | 9 kts | 11° |
| 2026-05-04 15:48 | 33.93760 | -118.41890 | 126 ft | 8 kts | 67° |
| 2026-05-04 15:48 | 33.93783 | -118.41756 | 128 ft | 8 kts | 67° |
| 2026-05-04 15:49 | 33.93822 | -118.41713 | 129 ft | 7 kts | 25° |
| 2026-05-04 15:49 | 33.93888 | -118.41705 | 128 ft | 15 kts | 354° |
| 2026-05-04 15:49 | 33.94000 | -118.41722 | 126 ft | 16 kts | 354° |
| 2026-05-04 15:49 | 33.94112 | -118.41738 | 124 ft | 16 kts | 353° |
| 2026-05-04 15:50 | 33.94226 | -118.41756 | 123 ft | 15 kts | 349° |
| 2026-05-04 15:50 | 33.94324 | -118.41767 | 123 ft | 12 kts | 11° |
| 2026-05-04 15:50 | 33.94357 | -118.41703 | 123 ft | 8 kts | 111° |
| 2026-05-04 15:50 | 33.94309 | -118.41672 | 123 ft | 6 kts | 170° |
| 2026-05-04 15:51 | 33.94284 | -118.41660 | 123 ft | 3 kts | 135° |
| 2026-05-04 15:51 | 33.94275 | -118.41637 | 124 ft | 2 kts | 103° |
| 2026-05-04 15:51 | 33.94276 | -118.41619 | 124 ft | 5 kts | 82° |
| 2026-05-04 15:51 | 33.94280 | -118.41583 | 125 ft | 3 kts | 83° |
| 2026-05-04 15:52 | 33.94281 | -118.41574 | 125 ft | 0 kts | 83° |
| 2026-05-04 15:52 | 33.94281 | -118.41573 | 125 ft | 0 kts | 83° |